Time;durP1;ratioP1;P1;durP2;ratioP2;P2;SDS_P1;SDS_P2;PMS_P1;PMS_P2;Temp;Humidity;BMP_temperature;BMP_pressure;BME280_temperature;BME280_humidity;BME280_pressure;Samples;Min_cycle;Max_cycle;Signal;HPM_P1;HPM_P2
2022/04/11 00:01:19;;;;;;;8.40;5.80;;;;;;;;;;5034278;28;20050;-67
2022/04/11 00:03:45;;;;;;;8.60;5.45;;;;;;;;;;5033918;28;20086;-66
2022/04/11 00:06:12;;;;;;;7.63;5.35;;;;;;;;;;5034303;28;20057;-66
2022/04/11 00:08:39;;;;;;;6.85;5.75;;;;;;;;;;5034029;28;20072;-66
2022/04/11 00:11:05;;;;;;;7.57;5.38;;;;;;;;;;5033824;28;20049;-66
2022/04/11 00:13:32;;;;;;;5.93;4.97;;;;;;;;;;5034022;28;20079;-66
2022/04/11 00:15:59;;;;;;;7.93;5.25;;;;;;;;;;5033980;28;20132;-67
2022/04/11 00:18:26;;;;;;;7.05;5.32;;;;;;;;;;5033891;28;20107;-66
2022/04/11 00:20:52;;;;;;;7.78;5.72;;;;;;;;;;5033571;28;20052;-66
2022/04/11 00:23:20;;;;;;;7.65;5.10;;;;;;;;;;5033550;28;20053;-66
2022/04/11 00:25:46;;;;;;;8.95;5.95;;;;;;;;;;5033356;28;20730;-66
2022/04/11 00:28:13;;;;;;;6.82;5.30;;;;;;;;;;5033205;28;20049;-66
2022/04/11 00:30:39;;;;;;;8.98;5.40;;;;;;;;;;5033564;28;20045;-66
2022/04/11 00:33:06;;;;;;;10.48;6.20;;;;;;;;;;5033422;28;20075;-66
2022/04/11 00:35:33;;;;;;;7.45;5.47;;;;;;;;;;5033561;28;20045;-66
2022/04/11 00:37:59;;;;;;;8.65;5.80;;;;;;;;;;5033514;28;20419;-66
2022/04/11 00:40:26;;;;;;;8.75;6.07;;;;;;;;;;5033612;28;20053;-66
2022/04/11 00:42:53;;;;;;;7.10;6.28;;;;;;;;;;5033457;28;20056;-66
2022/04/11 00:45:19;;;;;;;8.10;5.38;;;;;;;;;;5033556;28;20045;-66
2022/04/11 00:47:46;;;;;;;6.28;5.47;;;;;;;;;;5032901;28;20057;-67
2022/04/11 00:50:13;;;;;;;7.53;5.35;;;;;;;;;;5033203;28;20056;-66
2022/04/11 00:52:42;;;;;;;5.68;4.70;;;;;;;;;;5032915;28;20056;-67
2022/04/11 00:55:10;;;;;;;9.00;5.68;;;;;;;;;;5016141;28;20060;-67
2022/04/11 00:57:37;;;;;;;5.88;4.90;;;;;;;;;;5033446;28;20053;-66
2022/04/11 01:00:06;;;;;;;8.68;5.65;;;;;;;;;;5032952;28;20484;-66
2022/04/11 01:02:34;;;;;;;8.88;5.47;;;;;;;;;;5032719;28;20053;-66
2022/04/11 01:05:00;;;;;;;9.70;5.85;;;;;;;;;;5032856;28;20072;-66
2022/04/11 01:07:27;;;;;;;7.35;5.20;;;;;;;;;;5033026;28;20053;-66
2022/04/11 01:09:54;;;;;;;8.05;5.50;;;;;;;;;;5031578;28;20103;-66
2022/04/11 01:12:22;;;;;;;6.82;5.28;;;;;;;;;;5032594;28;20505;-67
2022/04/11 01:14:48;;;;;;;10.18;6.32;;;;;;;;;;5031428;28;20099;-66
2022/04/11 01:17:15;;;;;;;9.40;5.85;;;;;;;;;;5032978;28;20078;-66
2022/04/11 01:19:41;;;;;;;10.30;5.47;;;;;;;;;;5032910;28;20448;-67
2022/04/11 01:22:08;;;;;;;9.43;5.60;;;;;;;;;;5032714;28;20053;-67
2022/04/11 01:24:36;;;;;;;6.53;5.22;;;;;;;;;;5032399;28;20550;-66
2022/04/11 01:27:02;;;;;;;8.40;5.20;;;;;;;;;;5031325;28;20053;-66
2022/04/11 01:29:29;;;;;;;6.53;5.18;;;;;;;;;;5032601;28;20495;-66
2022/04/11 01:31:56;;;;;;;6.22;5.10;;;;;;;;;;5032512;28;20095;-66
2022/04/11 01:35:05;;;;;;;6.35;5.07;;;;;;;;;;5032318;28;20045;-66
2022/04/11 01:37:33;;;;;;;6.50;5.57;;;;;;;;;;5032167;28;20644;-66
2022/04/11 01:40:00;;;;;;;8.85;5.65;;;;;;;;;;5031835;28;20045;-66
2022/04/11 01:42:27;;;;;;;8.98;5.57;;;;;;;;;;5032050;28;20076;-66
2022/04/11 01:44:53;;;;;;;8.70;5.40;;;;;;;;;;5032216;28;20054;-66
2022/04/11 01:47:20;;;;;;;5.65;5.05;;;;;;;;;;5032268;28;20500;-66
2022/04/11 01:49:47;;;;;;;7.85;5.40;;;;;;;;;;5032113;28;20123;-66
2022/04/11 01:52:13;;;;;;;10.07;5.80;;;;;;;;;;5031951;28;20056;-67
2022/04/11 01:54:40;;;;;;;7.45;5.30;;;;;;;;;;5032140;28;20049;-67
2022/04/11 01:57:26;;;;;;;9.57;5.35;;;;;;;;;;5032424;28;20546;-67
2022/04/11 01:59:53;;;;;;;9.10;4.93;;;;;;;;;;5032010;28;20052;-66
2022/04/11 02:02:20;;;;;;;6.20;5.50;;;;;;;;;;5032030;28;20091;-66
2022/04/11 02:04:47;;;;;;;8.63;5.10;;;;;;;;;;5031890;28;20048;-66
2022/04/11 02:07:14;;;;;;;7.95;4.72;;;;;;;;;;5032025;28;20053;-66
2022/04/11 02:09:40;;;;;;;8.90;4.90;;;;;;;;;;5031776;28;20053;-66
2022/04/11 02:12:07;;;;;;;8.73;5.40;;;;;;;;;;5032025;28;20052;-67
2022/04/11 02:14:34;;;;;;;8.23;5.40;;;;;;;;;;5031930;28;20123;-67
2022/04/11 02:17:00;;;;;;;6.35;5.03;;;;;;;;;;5031879;28;20099;-66
2022/04/11 02:19:27;;;;;;;6.07;5.40;;;;;;;;;;5031862;28;20421;-66
2022/04/11 02:21:54;;;;;;;9.88;6.20;;;;;;;;;;5030501;28;20056;-66
2022/04/11 02:24:20;;;;;;;7.68;5.95;;;;;;;;;;5031475;28;20099;-66
2022/04/11 02:26:47;;;;;;;6.28;5.18;;;;;;;;;;5031920;28;20049;-67
2022/04/11 02:29:13;;;;;;;6.57;5.00;;;;;;;;;;5031733;28;20049;-66
2022/04/11 02:31:40;;;;;;;8.30;5.00;;;;;;;;;;5031647;28;20093;-67
2022/04/11 02:34:07;;;;;;;7.88;5.85;;;;;;;;;;5031787;28;20057;-66
2022/04/11 02:36:33;;;;;;;8.25;4.82;;;;;;;;;;5031729;28;20057;-66
2022/04/11 02:39:00;;;;;;;10.50;5.10;;;;;;;;;;5031500;28;20496;-66
2022/04/11 02:41:26;;;;;;;10.15;5.18;;;;;;;;;;5031124;28;20049;-66
2022/04/11 02:43:53;;;;;;;7.28;5.20;;;;;;;;;;5031730;28;20053;-66
2022/04/11 02:46:20;;;;;;;6.88;4.95;;;;;;;;;;5031487;28;20053;-66
2022/04/11 02:48:46;;;;;;;6.97;5.15;;;;;;;;;;5031647;28;20053;-66
2022/04/11 02:51:13;;;;;;;7.72;5.25;;;;;;;;;;5034882;28;20057;-66
2022/04/11 02:53:40;;;;;;;7.03;5.07;;;;;;;;;;5035396;28;20598;-66
2022/04/11 02:56:06;;;;;;;9.18;5.85;;;;;;;;;;5035540;28;20103;-67
2022/04/11 02:58:33;;;;;;;6.60;5.20;;;;;;;;;;5035643;28;20053;-66
2022/04/11 03:01:00;;;;;;;8.30;5.15;;;;;;;;;;5035104;28;20056;-67
2022/04/11 03:03:27;;;;;;;7.28;5.05;;;;;;;;;;5035279;28;20050;-67
2022/04/11 03:05:54;;;;;;;8.80;5.57;;;;;;;;;;5035273;28;20072;-66
2022/04/11 03:08:21;;;;;;;9.38;5.35;;;;;;;;;;5035511;28;20053;-66
2022/04/11 03:10:47;;;;;;;6.90;5.40;;;;;;;;;;5035131;28;20045;-66
2022/04/11 03:13:14;;;;;;;8.00;5.05;;;;;;;;;;5035228;28;20500;-66
2022/04/11 03:15:41;;;;;;;7.25;4.35;;;;;;;;;;5034945;28;20073;-66
2022/04/11 03:18:07;;;;;;;7.43;4.45;;;;;;;;;;5033930;28;20050;-66
2022/04/11 03:20:34;;;;;;;7.43;5.43;;;;;;;;;;5034791;28;20416;-66
2022/04/11 03:23:01;;;;;;;6.22;4.65;;;;;;;;;;5035013;28;20045;-66
2022/04/11 03:25:27;;;;;;;6.43;5.18;;;;;;;;;;5034991;28;20389;-66
2022/04/11 03:27:54;;;;;;;6.72;4.80;;;;;;;;;;5034965;28;20072;-66
2022/04/11 03:30:26;;;;;;;5.65;5.07;;;;;;;;;;5034565;28;20060;-66
2022/04/11 03:32:53;;;;;;;8.25;5.57;;;;;;;;;;5034722;28;20056;-66
2022/04/11 03:35:20;;;;;;;7.32;5.93;;;;;;;;;;5035653;28;20128;-66
2022/04/11 03:37:47;;;;;;;8.18;5.20;;;;;;;;;;5035140;28;20049;-66
2022/04/11 03:40:14;;;;;;;8.38;5.47;;;;;;;;;;5034772;28;20558;-66
2022/04/11 03:42:40;;;;;;;9.43;4.97;;;;;;;;;;5034698;28;20050;-66
2022/04/11 03:45:11;;;;;;;6.78;4.95;;;;;;;;;;5034350;28;20046;-66
2022/04/11 03:47:38;;;;;;;7.32;4.90;;;;;;;;;;5034376;28;20061;-67
2022/04/11 03:50:05;;;;;;;7.68;5.05;;;;;;;;;;5034544;28;20073;-66
2022/04/11 03:52:32;;;;;;;6.22;5.05;;;;;;;;;;5034329;28;20054;-66
2022/04/11 03:54:58;;;;;;;7.35;5.68;;;;;;;;;;5034348;28;20424;-67
2022/04/11 03:57:25;;;;;;;5.35;4.85;;;;;;;;;;5034182;28;20487;-66
2022/04/11 03:59:51;;;;;;;7.10;5.10;;;;;;;;;;5033961;28;20054;-66
2022/04/11 04:02:18;;;;;;;8.23;5.63;;;;;;;;;;5032963;28;20080;-66
2022/04/11 04:04:45;;;;;;;6.43;5.05;;;;;;;;;;5033858;28;20041;-66
2022/04/11 04:07:12;;;;;;;7.78;6.10;;;;;;;;;;5034117;28;20053;-66
2022/04/11 04:09:39;;;;;;;7.30;5.18;;;;;;;;;;5034218;28;20053;-66
2022/04/11 04:12:06;;;;;;;8.90;5.20;;;;;;;;;;5034518;28;20204;-68
2022/04/11 04:14:36;;;;;;;8.85;5.50;;;;;;;;;;5033851;28;20076;-68
2022/04/11 04:17:03;;;;;;;8.55;5.47;;;;;;;;;;5033714;28;20049;-67
2022/04/11 04:19:30;;;;;;;9.13;5.60;;;;;;;;;;5033199;28;20049;-67
2022/04/11 04:21:56;;;;;;;10.60;6.10;;;;;;;;;;5033560;28;20053;-68
2022/04/11 04:24:24;;;;;;;10.68;6.32;;;;;;;;;;5033603;28;20050;-67
2022/04/11 04:26:51;;;;;;;7.85;5.97;;;;;;;;;;5033781;28;20083;-67
2022/04/11 04:29:17;;;;;;;9.27;5.60;;;;;;;;;;5033720;28;20054;-68
2022/04/11 04:31:44;;;;;;;6.88;5.32;;;;;;;;;;5033586;28;20053;-68
2022/04/11 04:34:11;;;;;;;6.20;5.45;;;;;;;;;;5033369;28;20042;-67
2022/04/11 04:36:37;;;;;;;7.32;5.97;;;;;;;;;;5033818;28;20052;-67
2022/04/11 04:39:04;;;;;;;7.88;6.10;;;;;;;;;;5033414;28;20053;-68
2022/04/11 04:41:31;;;;;;;8.70;5.75;;;;;;;;;;5033059;28;20060;-67
2022/04/11 04:43:57;;;;;;;8.25;6.10;;;;;;;;;;5033063;28;20523;-67
2022/04/11 04:46:24;;;;;;;8.88;6.18;;;;;;;;;;5033332;28;20057;-67
2022/04/11 04:48:51;;;;;;;9.07;6.18;;;;;;;;;;5033277;28;20085;-66
2022/04/11 04:51:18;;;;;;;8.65;6.90;;;;;;;;;;5033058;28;20053;-67
2022/04/11 04:53:45;;;;;;;8.70;6.70;;;;;;;;;;5033015;28;20049;-67
2022/04/11 04:56:12;;;;;;;8.68;6.35;;;;;;;;;;5033097;28;20056;-67
2022/04/11 04:58:38;;;;;;;8.52;5.95;;;;;;;;;;5032998;28;20056;-67
2022/04/11 05:01:05;;;;;;;8.23;5.47;;;;;;;;;;5032744;28;20061;-66
2022/04/11 05:03:32;;;;;;;8.57;6.22;;;;;;;;;;5033082;28;20049;-67
2022/04/11 05:05:58;;;;;;;8.70;6.18;;;;;;;;;;5033043;28;20050;-67
2022/04/11 05:08:25;;;;;;;9.32;5.97;;;;;;;;;;5031937;28;20070;-68
2022/04/11 05:10:51;;;;;;;9.82;6.18;;;;;;;;;;5032658;28;20076;-67
2022/04/11 05:13:18;;;;;;;7.55;5.78;;;;;;;;;;5032467;28;20473;-68
2022/04/11 05:15:46;;;;;;;8.00;6.18;;;;;;;;;;5032968;28;20128;-68
2022/04/11 05:18:13;;;;;;;8.88;6.30;;;;;;;;;;5032704;28;20046;-68
2022/04/11 05:20:40;;;;;;;8.98;5.88;;;;;;;;;;5032825;28;20056;-66
2022/04/11 05:23:07;;;;;;;7.28;6.00;;;;;;;;;;5032695;28;20057;-68
2022/04/11 05:25:34;;;;;;;6.32;5.43;;;;;;;;;;5032543;28;20492;-67
2022/04/11 05:28:00;;;;;;;14.32;6.47;;;;;;;;;;5032986;28;20054;-67
2022/04/11 05:30:33;;;;;;;12.45;6.90;;;;;;;;;;5032463;28;20057;-68
2022/04/11 05:33:01;;;;;;;7.30;6.60;;;;;;;;;;5032662;28;20057;-67
2022/04/11 05:35:27;;;;;;;10.27;6.55;;;;;;;;;;5032561;28;20053;-68
2022/04/11 05:37:57;;;;;;;11.35;6.88;;;;;;;;;;5032402;28;20052;-68
2022/04/11 05:40:23;;;;;;;7.80;6.32;;;;;;;;;;5032056;28;20045;-68
2022/04/11 05:42:50;;;;;;;9.15;6.47;;;;;;;;;;5032364;28;20703;-68
2022/04/11 05:45:17;;;;;;;7.95;6.32;;;;;;;;;;5032229;28;20052;-68
2022/04/11 05:47:43;;;;;;;9.40;6.75;;;;;;;;;;5032410;28;20057;-68
2022/04/11 05:50:10;;;;;;;10.73;7.03;;;;;;;;;;5032093;28;20076;-67
2022/04/11 05:52:37;;;;;;;9.68;7.22;;;;;;;;;;5031905;28;20049;-67
2022/04/11 05:55:04;;;;;;;13.50;7.32;;;;;;;;;;5032623;28;20056;-68
2022/04/11 05:57:31;;;;;;;9.93;7.03;;;;;;;;;;5032107;28;20511;-67
2022/04/11 05:59:57;;;;;;;12.32;7.57;;;;;;;;;;5032100;28;20054;-67
2022/04/11 06:02:24;;;;;;;12.73;7.07;;;;;;;;;;5031876;28;20479;-68
2022/04/11 06:04:51;;;;;;;9.80;7.13;;;;;;;;;;5031422;28;20481;-67
2022/04/11 06:07:20;;;;;;;9.82;6.82;;;;;;;;;;5032059;28;20049;-67
2022/04/11 06:09:47;;;;;;;8.40;6.75;;;;;;;;;;5032266;28;20045;-67
2022/04/11 06:12:14;;;;;;;9.93;7.53;;;;;;;;;;5031710;28;20049;-68
2022/04/11 06:14:40;;;;;;;13.25;7.63;;;;;;;;;;5031896;28;20045;-66
2022/04/11 06:17:07;;;;;;;8.75;7.20;;;;;;;;;;5031889;28;20057;-65
2022/04/11 06:19:33;;;;;;;9.30;6.55;;;;;;;;;;5031874;28;20385;-66
2022/04/11 06:22:00;;;;;;;10.82;7.07;;;;;;;;;;5031385;28;20046;-67
2022/04/11 06:24:27;;;;;;;13.20;7.80;;;;;;;;;;5031292;28;20489;-67
2022/04/11 06:26:53;;;;;;;10.73;6.57;;;;;;;;;;5031846;28;20060;-66
2022/04/11 06:29:20;;;;;;;7.88;6.38;;;;;;;;;;5031703;28;20050;-66
2022/04/11 06:31:46;;;;;;;8.50;5.93;;;;;;;;;;5029029;28;20457;-64
2022/04/11 06:34:13;;;;;;;8.20;6.45;;;;;;;;;;5029510;28;20467;-65
2022/04/11 06:36:40;;;;;;;9.95;5.45;;;;;;;;;;5029343;28;20057;-65
2022/04/11 06:39:06;;;;;;;8.43;6.28;;;;;;;;;;5029790;28;20053;-65
2022/04/11 06:41:33;;;;;;;9.65;6.80;;;;;;;;;;5029380;28;20053;-65
2022/04/11 06:44:00;;;;;;;9.25;6.70;;;;;;;;;;5029264;28;20065;-65
2022/04/11 06:46:26;;;;;;;9.05;6.38;;;;;;;;;;5029567;28;20049;-65
2022/04/11 06:48:53;;;;;;;8.35;6.18;;;;;;;;;;5029557;28;20088;-65
2022/04/11 06:51:20;;;;;;;9.15;6.03;;;;;;;;;;5029118;28;20057;-63
2022/04/11 06:53:46;;;;;;;8.50;5.65;;;;;;;;;;5029797;28;20459;-65
2022/04/11 06:56:13;;;;;;;10.50;5.60;;;;;;;;;;5029223;28;20053;-65
2022/04/11 06:58:39;;;;;;;5.35;4.85;;;;;;;;;;5029513;28;20428;-66
2022/04/11 07:01:06;;;;;;;7.00;4.97;;;;;;;;;;5029066;28;20053;-65
2022/04/11 07:03:33;;;;;;;7.25;5.22;;;;;;;;;;5029368;28;20073;-65
2022/04/11 07:05:59;;;;;;;6.43;4.97;;;;;;;;;;5029601;28;20056;-65
2022/04/11 07:08:27;;;;;;;6.15;4.68;;;;;;;;;;5029720;28;20439;-66
2022/04/11 07:10:53;;;;;;;9.52;4.55;;;;;;;;;;5028847;28;20057;-66
2022/04/11 07:13:20;;;;;;;8.13;4.70;;;;;;;;;;5029552;28;20875;-66
2022/04/11 07:15:47;;;;;;;6.35;4.32;;;;;;;;;;5029544;28;20088;-66
2022/04/11 07:18:14;;;;;;;5.15;4.63;;;;;;;;;;5029462;28;20195;-67
2022/04/11 07:20:40;;;;;;;8.88;4.60;;;;;;;;;;5029336;28;20050;-65
2022/04/11 07:23:07;;;;;;;6.57;3.97;;;;;;;;;;5028831;28;20049;-66
2022/04/11 07:25:34;;;;;;;6.88;4.70;;;;;;;;;;5029267;28;20042;-66
2022/04/11 07:28:01;;;;;;;5.20;3.83;;;;;;;;;;5008820;28;20056;-66
2022/04/11 07:30:27;;;;;;;6.60;4.30;;;;;;;;;;5017341;28;20103;-66
2022/04/11 07:32:54;;;;;;;6.13;4.32;;;;;;;;;;5019093;28;20062;-63
2022/04/11 07:35:20;;;;;;;4.97;3.78;;;;;;;;;;5019119;28;20048;-64
2022/04/11 07:37:47;;;;;;;5.30;3.83;;;;;;;;;;5016541;28;20461;-65
2022/04/11 07:40:14;;;;;;;8.75;3.58;;;;;;;;;;5016845;28;20852;-65
2022/04/11 07:42:40;;;;;;;6.65;4.32;;;;;;;;;;5017523;28;20054;-65
2022/04/11 07:45:08;;;;;;;6.65;4.03;;;;;;;;;;5017230;28;20041;-64
2022/04/11 07:47:34;;;;;;;5.15;3.78;;;;;;;;;;5019209;28;20057;-68
2022/04/11 07:50:05;;;;;;;5.20;3.75;;;;;;;;;;5023695;28;20051;-64
2022/04/11 07:52:32;;;;;;;3.95;3.47;;;;;;;;;;5023004;28;20057;-65
2022/04/11 07:54:59;;;;;;;4.30;3.72;;;;;;;;;;5019321;28;20053;-65
2022/04/11 07:57:25;;;;;;;5.32;4.05;;;;;;;;;;5019621;28;20054;-64
2022/04/11 08:00:13;;;;;;;3.75;3.35;;;;;;;;;;5019545;28;20108;-64
2022/04/11 08:02:39;;;;;;;6.78;3.65;;;;;;;;;;5023011;28;20547;-64
2022/04/11 08:05:06;;;;;;;4.88;3.15;;;;;;;;;;5020588;28;20140;-64
2022/04/11 08:07:33;;;;;;;4.13;3.35;;;;;;;;;;5020522;28;20430;-64
2022/04/11 08:10:01;;;;;;;6.68;3.65;;;;;;;;;;5021065;28;20456;-63
2022/04/11 08:12:28;;;;;;;4.28;3.40;;;;;;;;;;5019665;28;20084;-64
2022/04/11 08:14:59;;;;;;;4.63;3.17;;;;;;;;;;5020561;28;20049;-65
2022/04/11 08:17:26;;;;;;;5.35;3.17;;;;;;;;;;5019305;28;20054;-64
2022/04/11 08:19:53;;;;;;;3.22;2.85;;;;;;;;;;5018254;28;20057;-64
2022/04/11 08:22:19;;;;;;;5.35;3.20;;;;;;;;;;5021972;28;20058;-64
2022/04/11 08:24:46;;;;;;;5.15;2.80;;;;;;;;;;5021597;28;20477;-64
2022/04/11 08:27:13;;;;;;;4.03;2.90;;;;;;;;;;5019525;28;20053;-65
2022/04/11 08:29:46;;;;;;;4.80;3.40;;;;;;;;;;5018102;28;20468;-65
2022/04/11 08:32:13;;;;;;;5.28;2.88;;;;;;;;;;5020877;28;20054;-63
2022/04/11 08:34:39;;;;;;;5.25;3.08;;;;;;;;;;5020914;28;20049;-64
2022/04/11 08:37:06;;;;;;;4.68;2.78;;;;;;;;;;5018005;28;20398;-64
2022/04/11 08:39:32;;;;;;;4.25;2.78;;;;;;;;;;5019672;28;20060;-63
2022/04/11 08:42:00;;;;;;;4.47;3.38;;;;;;;;;;5019495;28;20468;-64
2022/04/11 08:44:33;;;;;;;3.72;2.85;;;;;;;;;;5017884;28;20060;-63
2022/04/11 08:47:01;;;;;;;5.32;2.70;;;;;;;;;;5020691;28;20041;-63
2022/04/11 08:49:29;;;;;;;4.25;2.70;;;;;;;;;;5018764;28;20508;-64
2022/04/11 08:51:56;;;;;;;4.53;2.30;;;;;;;;;;5023067;28;20056;-64
2022/04/11 08:54:22;;;;;;;3.67;2.17;;;;;;;;;;5003679;28;20054;-64
2022/04/11 08:56:49;;;;;;;2.80;2.22;;;;;;;;;;5019052;28;20045;-64
2022/04/11 08:59:16;;;;;;;3.47;2.10;;;;;;;;;;5019128;28;20505;-64
2022/04/11 09:01:42;;;;;;;4.60;2.40;;;;;;;;;;5020260;28;20057;-64
2022/04/11 09:04:09;;;;;;;3.90;2.38;;;;;;;;;;5020239;28;20054;-64
2022/04/11 09:06:36;;;;;;;2.80;1.92;;;;;;;;;;5019145;28;20061;-64
2022/04/11 09:09:03;;;;;;;4.25;1.90;;;;;;;;;;5019426;28;20050;-63
2022/04/11 09:11:37;;;;;;;3.30;1.88;;;;;;;;;;5018823;28;20065;-63
2022/04/11 09:14:06;;;;;;;3.78;2.08;;;;;;;;;;5020883;28;20101;-63
2022/04/11 09:16:45;;;;;;;5.50;2.40;;;;;;;;;;5017915;28;20054;-64
2022/04/11 09:19:22;;;;;;;5.70;2.15;;;;;;;;;;5020915;28;20122;-64
2022/04/11 09:22:09;;;;;;;4.57;2.10;;;;;;;;;;5024231;28;20050;-64
2022/04/11 09:24:37;;;;;;;2.25;1.88;;;;;;;;;;5021447;28;20068;-64
2022/04/11 09:27:03;;;;;;;3.38;1.92;;;;;;;;;;5016647;28;20057;-64
2022/04/11 09:29:34;;;;;;;5.80;2.20;;;;;;;;;;5004511;28;20061;-67
2022/04/11 09:32:04;;;;;;;3.42;1.75;;;;;;;;;;5017176;28;20069;-66
2022/04/11 09:34:31;;;;;;;2.38;1.90;;;;;;;;;;5019809;28;20085;-67
2022/04/11 09:37:01;;;;;;;3.00;1.80;;;;;;;;;;5018120;28;20053;-66
2022/04/11 09:39:33;;;;;;;3.33;1.65;;;;;;;;;;5019689;28;20501;-66
2022/04/11 09:42:03;;;;;;;1.63;1.50;;;;;;;;;;5021071;28;20527;-66
2022/04/11 09:44:34;;;;;;;3.25;1.85;;;;;;;;;;5016972;28;20065;-67
2022/04/11 09:47:14;;;;;;;3.50;2.15;;;;;;;;;;5018491;28;20416;-73
2022/04/11 09:49:41;;;;;;;4.65;1.60;;;;;;;;;;5012807;28;20049;-71
2022/04/11 09:52:11;;;;;;;2.17;1.52;;;;;;;;;;5004360;28;20501;-78
2022/04/11 09:54:42;;;;;;;3.22;1.60;;;;;;;;;;5020219;28;20525;-76
2022/04/11 09:57:11;;;;;;;1.20;1.10;;;;;;;;;;5023964;28;20389;-77
2022/04/11 09:59:39;;;;;;;2.58;1.30;;;;;;;;;;5017917;28;20483;-67
2022/04/11 10:02:26;;;;;;;2.15;1.40;;;;;;;;;;5021810;28;20050;-69
2022/04/11 10:04:53;;;;;;;1.90;1.60;;;;;;;;;;4999209;28;20107;-72
2022/04/11 10:07:19;;;;;;;2.33;1.55;;;;;;;;;;5019689;28;20084;-73
2022/04/11 10:09:46;;;;;;;2.10;1.42;;;;;;;;;;5017625;28;20053;-73
2022/04/11 10:12:13;;;;;;;2.47;1.70;;;;;;;;;;5011465;23;20563;-71
2022/04/11 10:14:39;;;;;;;2.63;1.63;;;;;;;;;;4991014;28;20050;-68
2022/04/11 10:17:07;;;;;;;2.20;1.17;;;;;;;;;;4972221;28;20039;-70
2022/04/11 10:19:35;;;;;;;3.20;1.48;;;;;;;;;;4991019;28;20081;-69
2022/04/11 10:22:04;;;;;;;2.95;1.23;;;;;;;;;;4989873;28;20042;-69
2022/04/11 10:24:34;;;;;;;5.30;1.40;;;;;;;;;;4990521;28;20538;-69
2022/04/11 10:27:19;;;;;;;3.60;1.45;;;;;;;;;;4990960;28;20042;-71
2022/04/11 10:29:48;;;;;;;1.85;1.35;;;;;;;;;;4989572;28;20069;-68
2022/04/11 10:32:19;;;;;;;2.35;1.30;;;;;;;;;;4990604;28;20050;-69
2022/04/11 10:35:10;;;;;;;2.33;1.13;;;;;;;;;;4990601;28;20464;-68
2022/04/11 10:37:40;;;;;;;1.88;1.30;;;;;;;;;;4990637;28;20413;-68
2022/04/11 10:40:19;;;;;;;1.95;1.30;;;;;;;;;;4990136;28;20133;-65
2022/04/11 10:43:08;;;;;;;1.55;1.25;;;;;;;;;;4990373;28;20054;-65
2022/04/11 10:45:40;;;;;;;2.35;1.20;;;;;;;;;;4988126;28;20493;-65
2022/04/11 10:48:11;;;;;;;1.45;1.30;;;;;;;;;;4986010;28;20083;-65
2022/04/11 10:50:44;;;;;;;3.08;1.65;;;;;;;;;;4988104;28;20138;-66
2022/04/11 10:53:24;;;;;;;3.15;1.73;;;;;;;;;;4988824;28;20050;-65
2022/04/11 10:56:02;;;;;;;2.70;1.20;;;;;;;;;;4986790;28;20531;-66
2022/04/11 10:59:01;;;;;;;1.75;1.27;;;;;;;;;;4987525;28;20051;-64
2022/04/11 11:01:43;;;;;;;1.92;1.17;;;;;;;;;;4954735;28;20103;-66
2022/04/11 11:04:18;;;;;;;1.85;1.05;;;;;;;;;;4988487;28;20089;-65
2022/04/11 11:06:45;;;;;;;1.80;1.23;;;;;;;;;;4985265;28;20046;-66
2022/04/11 11:09:19;;;;;;;4.18;1.63;;;;;;;;;;4971829;28;20042;-65
2022/04/11 11:11:47;;;;;;;2.92;1.42;;;;;;;;;;4989371;28;20054;-66
2022/04/11 11:14:42;;;;;;;1.90;1.20;;;;;;;;;;4990028;28;20405;-66
2022/04/11 11:17:10;;;;;;;1.45;1.33;;;;;;;;;;4991247;28;20444;-65
2022/04/11 11:20:08;;;;;;;1.88;1.33;;;;;;;;;;4991860;28;20050;-65
2022/04/11 11:23:15;;;;;;;2.53;1.58;;;;;;;;;;4999429;28;20046;-64
2022/04/11 11:25:44;;;;;;;1.80;1.38;;;;;;;;;;4991485;28;20131;-65
2022/04/11 11:28:14;;;;;;;2.60;1.40;;;;;;;;;;4989870;28;20116;-64
2022/04/11 11:30:42;;;;;;;1.42;1.33;;;;;;;;;;4990173;28;20129;-65
2022/04/11 11:33:14;;;;;;;1.73;1.27;;;;;;;;;;4989825;28;20062;-65
2022/04/11 11:35:52;;;;;;;2.47;1.67;;;;;;;;;;4990819;28;20505;-63
2022/04/11 11:38:27;;;;;;;3.25;1.52;;;;;;;;;;4989997;28;20066;-64
2022/04/11 11:41:03;;;;;;;2.90;1.60;;;;;;;;;;4986105;28;20231;-71
2022/04/11 11:43:32;;;;;;;2.97;1.58;;;;;;;;;;4988125;28;20471;-64
2022/04/11 11:46:06;;;;;;;3.03;1.40;;;;;;;;;;4989005;28;20046;-65
2022/04/11 11:48:40;;;;;;;2.10;1.48;;;;;;;;;;4994764;28;20517;-64
2022/04/11 11:51:12;;;;;;;2.38;1.50;;;;;;;;;;4975180;28;20046;-65
2022/04/11 11:53:41;;;;;;;4.00;1.50;;;;;;;;;;4993957;28;20081;-66
2022/04/11 11:56:10;;;;;;;2.97;1.30;;;;;;;;;;4989879;28;20050;-66
2022/04/11 11:58:41;;;;;;;4.18;1.77;;;;;;;;;;4989942;28;20046;-65
2022/04/11 12:01:15;;;;;;;2.50;1.95;;;;;;;;;;4991102;28;20054;-65
2022/04/11 12:06:33;;;;;;;1.75;1.30;;;;;;;;;;4989983;28;20061;-66
2022/04/11 12:09:04;;;;;;;2.75;1.45;;;;;;;;;;4991343;28;20054;-65
2022/04/11 12:11:32;;;;;;;1.70;1.25;;;;;;;;;;4989697;28;20104;-65
2022/04/11 12:14:05;;;;;;;1.58;1.15;;;;;;;;;;4989412;28;20046;-66
2022/04/11 12:16:34;;;;;;;2.03;1.40;;;;;;;;;;4991277;28;20053;-66
2022/04/11 12:19:05;;;;;;;2.10;1.60;;;;;;;;;;4971656;28;20116;-66
2022/04/11 12:21:41;;;;;;;2.33;1.35;;;;;;;;;;4989477;28;20097;-65
2022/04/11 12:24:10;;;;;;;3.50;1.38;;;;;;;;;;4987277;28;20129;-67
2022/04/11 12:26:40;;;;;;;1.45;1.20;;;;;;;;;;4988152;28;20058;-66
2022/04/11 12:29:16;;;;;;;1.88;1.52;;;;;;;;;;4992762;28;20050;-68
2022/04/11 12:32:03;;;;;;;2.28;1.38;;;;;;;;;;4988761;28;20050;-67
2022/04/11 12:34:33;;;;;;;1.42;1.20;;;;;;;;;;4991447;28;20046;-67
2022/04/11 12:37:05;;;;;;;1.90;1.40;;;;;;;;;;4992704;28;20077;-67
2022/04/11 12:39:54;;;;;;;1.75;1.63;;;;;;;;;;4992720;28;20078;-67
2022/04/11 12:42:28;;;;;;;1.38;0.95;;;;;;;;;;4991807;28;20042;-67
2022/04/11 12:45:09;;;;;;;1.45;1.20;;;;;;;;;;4992086;28;20077;-67
2022/04/11 12:48:15;;;;;;;2.35;1.30;;;;;;;;;;4991812;28;20057;-67
2022/04/11 12:50:50;;;;;;;2.67;1.60;;;;;;;;;;4991621;28;20476;-67
2022/04/11 12:53:30;;;;;;;1.40;0.90;;;;;;;;;;4975779;28;20053;-67
2022/04/11 12:56:08;;;;;;;1.10;1.00;;;;;;;;;;4992544;28;20054;-67
2022/04/11 12:58:37;;;;;;;3.28;1.70;;;;;;;;;;4992141;28;20054;-66
2022/04/11 13:01:07;;;;;;;2.28;1.65;;;;;;;;;;4991953;28;20502;-67
2022/04/11 13:03:35;;;;;;;1.40;1.30;;;;;;;;;;4990553;28;20050;-67
2022/04/11 13:06:05;;;;;;;2.20;1.48;;;;;;;;;;4990748;28;20081;-67
2022/04/11 13:08:33;;;;;;;5.90;1.55;;;;;;;;;;4992477;28;20051;-68
2022/04/11 13:11:03;;;;;;;1.85;1.35;;;;;;;;;;4991806;28;20108;-67
2022/04/11 13:13:33;;;;;;;3.08;1.58;;;;;;;;;;4991735;28;20046;-67
2022/04/11 13:18:47;;;;;;;1.60;1.48;;;;;;;;;;4991041;28;20077;-67
2022/04/11 13:21:15;;;;;;;1.95;1.48;;;;;;;;;;4991352;28;20050;-67
2022/04/11 13:23:44;;;;;;;3.05;1.42;;;;;;;;;;4990546;28;20510;-67
2022/04/11 13:26:11;;;;;;;2.95;1.30;;;;;;;;;;4990617;28;20413;-67
2022/04/11 13:28:38;;;;;;;1.33;1.20;;;;;;;;;;4992073;28;20057;-67
2022/04/11 13:31:04;;;;;;;1.73;1.20;;;;;;;;;;4991089;28;20054;-67
2022/04/11 13:33:32;;;;;;;2.45;1.55;;;;;;;;;;4992043;28;20058;-67
2022/04/11 13:36:00;;;;;;;2.53;1.60;;;;;;;;;;4989899;28;20046;-67
2022/04/11 13:38:27;;;;;;;1.90;1.58;;;;;;;;;;4991628;28;20058;-67
2022/04/11 13:40:54;;;;;;;2.13;1.48;;;;;;;;;;4991060;28;20050;-67
2022/04/11 13:43:20;;;;;;;2.67;1.63;;;;;;;;;;4991679;28;20520;-67
2022/04/11 13:45:47;;;;;;;2.17;1.52;;;;;;;;;;4991208;28;20054;-67
2022/04/11 13:48:14;;;;;;;6.45;1.65;;;;;;;;;;4991560;28;20046;-67
2022/04/11 13:50:40;;;;;;;1.52;1.33;;;;;;;;;;4990881;28;20050;-67
2022/04/11 13:53:07;;;;;;;3.47;1.50;;;;;;;;;;4990131;28;20057;-67
2022/04/11 13:55:34;;;;;;;2.25;1.70;;;;;;;;;;4991714;28;20054;-68
2022/04/11 13:58:08;;;;;;;1.65;1.55;;;;;;;;;;4985123;28;20492;-70
2022/04/11 14:00:39;;;;;;;2.78;1.80;;;;;;;;;;4989325;28;20058;-66
2022/04/11 14:03:11;;;;;;;2.38;1.65;;;;;;;;;;4986522;28;20061;-71
2022/04/11 14:05:39;;;;;;;2.53;1.80;;;;;;;;;;4990863;28;20061;-70
2022/04/11 14:08:07;;;;;;;3.80;1.50;;;;;;;;;;4989700;28;20100;-73
2022/04/11 14:10:34;;;;;;;2.38;1.83;;;;;;;;;;4991243;28;20051;-75
2022/04/11 14:13:00;;;;;;;3.10;1.85;;;;;;;;;;4989153;28;20058;-73
2022/04/11 14:15:27;;;;;;;2.10;1.90;;;;;;;;;;4990962;28;20054;-72
2022/04/11 14:17:54;;;;;;;2.85;2.10;;;;;;;;;;4991566;28;20064;-70
2022/04/11 14:20:21;;;;;;;2.50;2.30;;;;;;;;;;4991094;28;20046;-73
2022/04/11 14:22:48;;;;;;;2.53;2.20;;;;;;;;;;4989043;28;20444;-74
2022/04/11 14:25:21;;;;;;;2.22;2.03;;;;;;;;;;4989605;28;20076;-73
2022/04/11 14:28:07;;;;;;;2.65;2.33;;;;;;;;;;4988829;28;20053;-71
2022/04/11 14:30:40;;;;;;;2.20;2.00;;;;;;;;;;4989419;28;20093;-73
2022/04/11 14:33:08;;;;;;;2.03;1.90;;;;;;;;;;4984692;28;20100;-68
2022/04/11 14:35:36;;;;;;;2.63;2.15;;;;;;;;;;4990725;28;20165;-68
2022/04/11 14:38:03;;;;;;;2.28;2.08;;;;;;;;;;4987476;28;20042;-72
2022/04/11 14:40:31;;;;;;;4.55;1.90;;;;;;;;;;4987178;28;20078;-70
2022/04/11 14:43:01;;;;;;;2.25;2.05;;;;;;;;;;4988663;28;20057;-73
2022/04/11 14:45:28;;;;;;;3.35;1.75;;;;;;;;;;4989947;28;20046;-71
2022/04/11 14:47:56;;;;;;;2.35;2.13;;;;;;;;;;4994633;28;20053;-69
2022/04/11 14:50:23;;;;;;;3.38;1.98;;;;;;;;;;4993541;28;20149;-69
2022/04/11 14:52:50;;;;;;;4.07;2.67;;;;;;;;;;4994094;28;20061;-68
2022/04/11 14:55:38;;;;;;;2.25;1.95;;;;;;;;;;4994581;28;20064;-70
2022/04/11 14:58:06;;;;;;;2.30;2.10;;;;;;;;;;4994553;28;20165;-72
2022/04/11 15:00:33;;;;;;;3.10;2.33;;;;;;;;;;4992919;28;20054;-67